x

8639348 - Money Point, Va (mnpv2) Weather Station

3:30pm - Tue 3rd Mar 2015 All times are EST. -5 hours from GMT.

  • Wind
    8mph, 9mph gusts
  • Sea Temp 38°f
  • Air Temp 43°f
  • Sea Pressure 1023.3mb
  • 8639348 - Money Point, Va
  • 8639348 - Money Point, Va

More Historic Weather Station data

Upgrade to MSW Pro to gain access to the past 30 days of data for over 8000 Wavebouys and Weather Stations around the globe.

Join Pro

Comparision Forecast

View Surf forecast
   
Tue 03/03 3:30pm 8 9 mph 1023.3mb 38f 43f
3:24pm 6 7 mph 1023.6mb 38f 43f
3:18pm 6 7 mph 1023.5mb 38f 43f
3:12pm 5 6 mph 1023.9mb 38f 42f
3:06pm 5 6 mph 1024.3mb 38f 42f
3:00pm 5 6 mph 1024.4mb 38f 42f
2:54pm 1 2 mph 1024.7mb 38f 42f
2:48pm 3 5 mph 1024.6mb 38f 42f
2:42pm 5 6 mph 1024.5mb 38f 42f
2:36pm 5 6 mph 1024.7mb 37f 42f
2:30pm 3 5 mph 1024.8mb 38f 41f
2:24pm 3 5 mph 1025mb 38f 41f
2:18pm 3 5 mph 1025.1mb 38f 41f
2:12pm 3 7 mph 1025.2mb 38f 41f
2:06pm 7 8 mph 1025.2mb 38f 41f
2:00pm 9 10 mph 1025.4mb 38f 41f
1:54pm 6 8 mph 1025.5mb 38f 41f
1:48pm 7 9 mph 1025.3mb 38f 41f
1:42pm 7 8 mph 1025.3mb 37f 41f
1:36pm 5 7 mph 1025.6mb 38f 41f
1:30pm 6 8 mph 1025.8mb 37f 41f
1:24pm 5 8 mph 1025.9mb 37f 41f
1:18pm 5 6 mph - - -
1:12pm 5 7 mph 1026.6mb 37f 40f
1:06pm 5 6 mph 1026.9mb 37f 40f
1:00pm 5 6 mph 1027.2mb 37f 40f
12:54pm 6 9 mph 1027.2mb 38f 40f
12:48pm 3 6 mph 1027.4mb 37f 40f
12:42pm 3 5 mph 1027.7mb 38f 40f
12:36pm 5 7 mph 1027.7mb 38f 40f
12:30pm 6 7 mph 1028.2mb 37f 40f
12:24pm 3 5 mph 1028.3mb 37f 40f
12:18pm 3 6 mph 1028.3mb 37f 40f
12:12pm 3 6 mph 1028.4mb 37f 39f
12:06pm 2 6 mph 1028.6mb 37f 40f
12:00pm 6 9 mph 1028.5mb 37f 39f
11:54am 5 8 mph 1028.7mb 37f 39f
11:48am 5 6 mph 1028.9mb 37f 39f
11:42am 5 8 mph 1029mb 37f 39f
11:36am 5 7 mph 1029.1mb 36f 39f
11:30am 2 3 mph 1029.6mb 36f -
11:24am 5 7 mph 1029.8mb 36f -
11:18am 1 3 mph 1029.9mb 36f -
11:12am 3 5 mph - - 39f
11:06am 3 5 mph - - 39f
11:00am  -  mph 1030.1mb 36f 39f
10:54am  -  mph 1029.9mb 36f 38f
10:48am 6 9 mph - 36f 38f
10:42am 3 6 mph - 36f 38f
10:36am 5 7 mph - 36f 38f
10:30am 6 9 mph - 36f 38f
10:24am 6 7 mph - 36f 37f
10:18am  -  mph 1030.2mb 36f 37f
10:12am  -  mph 1030.8mb 36f 37f
10:06am  -  mph 1030.7mb 36f 37f
10:00am 2 6 mph - - 37f
9:54am 3 6 mph - - 37f
9:48am 1 5 mph - - -
9:42am 2 3 mph - - -
9:36am 5 8 mph - - -
9:30am  -  mph - - 36f
9:24am  -  mph - - 36f
9:18am 5 9 mph - 36f -
9:12am 5 8 mph - 36f -
9:06am 6 9 mph - 36f -
9:00am  -  mph 1030.7mb - 35f
8:54am  -  mph 1030.7mb - 35f
8:48am 5 8 mph - - 35f
8:42am 5 8 mph - - 35f
8:36am 3 7 mph - - 35f
8:30am  -  mph - 36f -
8:24am  -  mph - 36f -
8:18am 3 6 mph 1030.7mb - 34f
8:12am 5 7 mph 1031mb - 34f
8:06am 5 7 mph 1031.2mb - 34f
8:00am 5 9 mph - 36f -
7:54am 5 7 mph - 36f -
7:48am  -  mph 1031mb 36f -
7:42am  -  mph 1030.6mb 36f -
7:36am  -  mph 1030.4mb 36f -
7:30am  -  mph 1030.1mb - 33f
7:24am  -  mph 1029.9mb - 33f
7:18am  -  mph 1030mb - 33f
7:12am  -  mph 1029.9mb - 32f
7:06am  -  mph 1029.8mb - 32f
7:00am 2 5 mph 1029.9mb 36f 32f
6:54am 2 5 mph 1029.9mb 36f 32f
6:48am 5 6 mph - 36f -
6:42am 2 3 mph - 36f -
6:36am 3 6 mph - 36f -
6:30am 2 5 mph 1029.9mb 36f -
6:24am 2 5 mph 1030.1mb 36f -
6:18am  -  mph 1030mb 36f 32f
6:12am  -  mph 1030mb 36f 32f
6:06am  -  mph 1029.9mb 36f 32f
6:00am  -  mph 1029.5mb 36f 32f
5:54am  -  mph 1029.6mb 37f 32f
5:48am 3 6 mph - - -
5:42am 3 6 mph - - -
5:36am 3 6 mph - - -
5:30am  -  mph 1029.7mb 37f -
5:24am  -  mph 1029.7mb 37f -
5:18am  -  mph 1029.5mb 37f -
5:12am 3 5 mph - 37f 32f
5:06am 3
mph
- 37f 32f
5:00am 3
mph
1029.8mb 37f -
4:54am 3 6 mph 1029.8mb 37f -
4:48am  -  mph 1029.8mb 37f -
4:42am  -  mph 1029.9mb 37f -
4:36am  -  mph 1029.8mb 37f -
4:30am 2 3 mph 1029.6mb - 33f
4:24am 3 5 mph 1029.8mb - 33f
4:18am  -  mph - - 33f
4:12am  -  mph - - 33f
4:06am  -  mph - - 33f
4:00am  -  mph 1029.4mb 37f 33f
3:54am  -  mph 1029.4mb 37f 33f
3:48am 5 6 mph 1029.2mb - 34f
3:42am 3 6 mph 1029.2mb - 34f
3:36am 3 5 mph 1029.1mb - 34f
3:30am 5 7 mph 1029mb - 34f
3:24am 3 6 mph 1029.1mb - 34f
3:18am  -  mph - 37f 34f
3:12am  -  mph - 37f 34f
3:06am  -  mph - 37f 34f
3:00am  -  mph - 37f 35f
2:54am 5 7 mph 1029.2mb - 35f
2:48am 6 9 mph 1029.2mb 37f 35f
2:42am 6 11 mph 1029.3mb 37f 35f
2:36am 6 10 mph 1029.1mb 37f 35f
2:30am 5 9 mph 1029.1mb - 35f
2:24am 6 13 mph 1029.2mb - 35f
2:18am  -  mph - - 35f
2:12am  -  mph - - 35f
2:06am  -  mph - - 35f
2:00am 8 13 mph - - -
1:54am 7 13 mph - - -
1:48am 8 13 mph 1029.4mb - 36f
1:42am 7 11 mph 1029.5mb - 36f
1:36am 7 10 mph 1029.5mb - 36f
1:30am 6 10 mph 1029.6mb - 36f
1:24am 6 11 mph 1029.5mb - 36f
1:18am 5 8 mph - - 36f
1:06am 6 9 mph - - 36f
1:00am  -  mph - 37f 36f
12:54am  -  mph - 37f 36f
12:48am  -  mph - 37f 36f
12:42am  -  mph - 37f 36f
12:36am  -  mph - 37f 36f
12:30am  -  mph 1029.5mb - -
12:24am  -  mph 1029.6mb - -
12:18am  -  mph 1029.5mb 37f 37f
12:12am  -  mph 1029.5mb 37f 37f
12:06am  -  mph 1029.6mb 37f 37f
12:00am  -  mph 1029.6mb - -
Mon 03/02 11:54pm  -  mph 1029.6mb - -
11:48pm  -  mph 1029.4mb - -
11:42pm  -  mph - 37f 38f
11:36pm  -  mph - 37f 38f
11:30pm  -  mph 1029.5mb 37f 38f
11:24pm  -  mph 1029.5mb 37f 37f
11:18pm  -  mph 1029.6mb - 37f
11:12pm  -  mph 1029.7mb - 37f
11:06pm  -  mph 1029.7mb - 37f
11:00pm  -  mph 1029.6mb - 37f
10:54pm 3 6 mph 1029.7mb 36f 37f
10:48pm  -  mph - 36f -
10:42pm  -  mph - 36f -
10:36pm  -  mph - 36f -
10:30pm 5 7 mph 1029.4mb - 37f
10:24pm 3 7 mph 1029.4mb - 37f
10:18pm  -  mph - 36f -
10:12pm  -  mph - 36f -
10:06pm  -  mph - 36f -
10:00pm  -  mph 1029.2mb 36f 38f
9:54pm  -  mph 1029.2mb 36f 38f
9:48pm 2 3 mph - 36f -
9:42pm 3 5 mph - 36f -
9:36pm 2 3 mph - 36f -
9:30pm  -  mph - 35f -
9:24pm  -  mph - 36f -
9:18pm  -  mph - 36f -
9:12pm  -  mph - 36f -
9:06pm  -  mph - 35f -
9:00pm 1 2 mph 1028.6mb 35f 38f
8:54pm 2 3 mph 1028.5mb 35f 38f
8:48pm  -  mph - 35f 39f
8:42pm  -  mph - 35f 39f
8:36pm  -  mph - 35f 39f
8:30pm  -  mph - 35f 39f
8:24pm  -  mph - 35f 39f
8:18pm  -  mph 1028.2mb 35f 39f
8:12pm  -  mph 1028.3mb 35f 39f
8:06pm  -  mph 1028.1mb 35f 39f
8:00pm 5 9 mph 1028.1mb 35f -
7:54pm 5 7 mph 1028.1mb 35f -
7:48pm 5 7 mph - 35f -
7:42pm 5 10 mph - 35f -
7:36pm 6 9 mph - 35f -
7:30pm  -  mph 1027.7mb 35f -
7:24pm  -  mph 1027.6mb 35f -
7:18pm  -  mph 1027.6mb - 40f
7:12pm  -  mph 1027.5mb - 40f
7:06pm  -  mph 1027.6mb - 40f
7:00pm 6 10 mph - 35f -
6:54pm 7 11 mph - 35f -
6:48pm 6 8 mph - 35f -
6:42pm 6 11 mph - 35f -
6:36pm 5 8 mph - 35f -
6:30pm 5 7 mph - 35f 41f
6:24pm 5 8 mph - 35f 41f
6:18pm 3 8 mph 1027.2mb 35f 41f
6:12pm 5 8 mph 1027mb 35f 41f
6:06pm 6 11 mph 1026.9mb 35f 41f
6:00pm 5 7 mph 1026.7mb 35f 41f
5:54pm 6 8 mph 1026.6mb 35f 41f
5:48pm 5 9 mph 1026.5mb 35f 42f
5:42pm 6 9 mph 1026.4mb 36f 42f
5:36pm 6 11 mph 1026.4mb 36f 42f
5:30pm 6 10 mph 1026.2mb 36f 42f
5:24pm 6 10 mph 1026mb 36f 42f
5:18pm 6 11 mph 1026mb 36f 42f
5:12pm 5 8 mph 1026mb 36f 43f
5:06pm 8 13 mph 1025.9mb 36f 43f
5:00pm 8 11 mph 1025.7mb 36f 42f
4:54pm 8 14 mph 1025.7mb 36f 43f
4:48pm 7 14 mph 1025.7mb 36f 43f
4:42pm 9 13 mph 1025.7mb 36f 43f
4:36pm 7 10 mph 1025.6mb 37f 43f
4:30pm 7 10 mph 1025.5mb 37f 44f
4:24pm 6 13 mph 1025.5mb 37f 44f
4:18pm 8 11 mph 1025.6mb 37f 44f
4:12pm 7 11 mph 1025.5mb 37f 44f
4:06pm 6 9 mph 1025.5mb 36f 45f
4:00pm 7 11 mph 1025.6mb 36f 44f
3:54pm 7 10 mph 1025.5mb 37f 45f
3:48pm 6 10 mph 1025.4mb 37f 46f
3:42pm 6 10 mph 1025.4mb 37f 45f
3:36pm 7 10 mph 1025.3mb 37f 46f
3:30pm 7 13 mph 1025.2mb 37f 46f
3:24pm 5 9 mph 1025.1mb 37f 47f
3:18pm 5 8 mph 1025.1mb 37f 46f
3:12pm 6 8 mph 1025mb 37f 46f
3:06pm 5 9 mph 1024.9mb 37f 46f
3:00pm 7 11 mph 1024.8mb 37f 45f
2:54pm 6 10 mph 1024.9mb 37f 46f
2:48pm 7 13 mph 1024.8mb 37f 45f
2:42pm 6 13 mph 1024.7mb 37f 46f
2:36pm 8 11 mph 1024.7mb 37f 46f
2:30pm 8 14 mph 1024.7mb 37f 45f
2:24pm 5 10 mph 1024.5mb 37f 45f
2:18pm 7 14 mph 1024.5mb 38f 45f
2:12pm 5 9 mph 1024.5mb 38f 45f
2:06pm 5 9 mph 1024.5mb 38f 45f
2:00pm 5 9 mph 1024.4mb 38f 45f
1:54pm 7 11 mph 1024.5mb 38f 45f
1:48pm 7 15 mph 1024.5mb 38f 45f
1:42pm 6 11 mph 1024.5mb 38f 45f
1:36pm 8 14 mph 1024.5mb 38f 45f
1:30pm 6 10 mph 1024.6mb 37f 45f
1:24pm 7 11 mph 1024.6mb 37f 45f
1:18pm 6 10 mph 1024.6mb 37f 45f
1:12pm 9 14 mph 1024.6mb 37f 45f
1:06pm 7 14 mph 1024.7mb 37f 45f
1:00pm 8 15 mph 1024.7mb 37f 45f
12:54pm 7 13 mph 1024.7mb 37f 45f
12:48pm 9 14 mph 1024.7mb 36f 45f
12:42pm 5 10 mph 1024.7mb 36f 45f
12:36pm 6 10 mph 1024.6mb 36f 45f
12:30pm 8 11 mph 1024.7mb 37f 44f
12:24pm 8 16 mph 1024.8mb 36f 44f
12:18pm 8 11 mph 1024.7mb 36f 44f
12:12pm 5 10 mph 1024.7mb 36f 44f
12:06pm 7 11 mph 1024.8mb 37f 44f
12:00pm 2 8 mph 1024.8mb 36f 44f
11:54am 6 8 mph 1024.9mb 36f 43f
11:48am 7 10 mph 1024.9mb 36f 42f
11:42am 7 10 mph 1024.9mb 36f 42f
11:36am 7 11 mph 1025mb 36f 42f
11:30am 5 6 mph 1025mb 36f 41f
11:24am 6 9 mph 1025mb 36f 40f
11:18am 6 11 mph 1025mb 36f 39f
11:12am 6 9 mph 1025mb 36f 38f
11:06am 7 11 mph 1024.9mb 35f 38f
11:00am 9 14 mph 1025.2mb 35f 38f
10:54am 9 15 mph 1024.9mb 35f 38f
10:48am 8 17 mph 1024.6mb 35f 39f
10:42am 8 10 mph 1024.4mb 35f 40f
10:36am 8 13 mph 1024.2mb 35f 39f
10:30am 10 15 mph 1024.1mb 35f 39f
10:24am 10 15 mph 1024.1mb 35f 39f
10:18am 11 16 mph 1023.7mb 35f 40f
10:12am 13 17 mph 1023.5mb 35f 41f
10:06am 9 15 mph 1023.2mb 35f 42f
10:00am 9 15 mph 1023mb 35f 43f
9:54am 6 10 mph 1022.6mb 35f 42f
9:48am 8 13 mph 1022.4mb 35f 42f
9:42am 7 9 mph 1022.5mb 35f 42f
9:36am 6 10 mph 1022.3mb 35f 41f
9:30am 7 10 mph 1022.1mb 35f 40f
9:24am 6 8 mph 1022mb 35f 40f
9:18am 5 6 mph 1022mb 35f 39f
9:12am 5 8 mph 1021.8mb 35f 39f
9:06am 5 9 mph 1021.8mb 35f 39f
9:00am 6 9 mph 1021.6mb 35f 38f
8:54am 6 9 mph 1021.5mb 35f 38f
8:48am 7 11 mph 1021.5mb 35f 38f
8:42am 6 8 mph 1021.6mb 35f 38f
8:36am 7 10 mph 1021.6mb 35f 38f
8:30am 6 9 mph 1021.6mb 35f 38f
8:24am 7 10 mph 1021.4mb 35f 37f
8:18am 7 9 mph 1021.4mb 35f 37f
8:12am 7 9 mph 1021.1mb 35f 37f
8:06am 6 8 mph 1020.9mb 35f 37f
8:00am 7 9 mph 1020.9mb 35f 37f
7:54am 6 8 mph 1020.8mb 35f 37f
7:48am 8 13 mph 1020.8mb 35f 37f
7:42am 8 11 mph 1020.8mb 35f 36f
7:36am 6 9 mph 1020.4mb 35f 36f
7:30am 6 9 mph 1020.4mb 35f 36f
7:24am 7 9 mph 1020.6mb 35f 36f
7:18am 5 7 mph 1020.5mb 35f 36f
7:12am 6 8 mph 1020.4mb 35f 36f
7:06am 3 5 mph 1020.2mb 35f 36f
7:00am 5 6 mph 1020.3mb 35f 36f
6:54am 6 7 mph 1020.3mb 35f 36f
6:48am 5 6 mph 1020.4mb 35f 36f
6:42am 5 6 mph 1020.8mb 35f 36f
6:36am 5 7 mph 1020.9mb 35f 36f
6:30am 7 10 mph 1021mb 35f 36f
6:24am 5 7 mph 1020.9mb 35f 36f
6:18am 7 8 mph 1020.9mb 35f 36f
6:12am 5 7 mph - - -
6:06am 5 6 mph 1020.7mb 35f 36f
6:00am 7 8 mph 1020.7mb 35f 36f
5:54am 3 5 mph 1020.8mb 35f 36f
5:48am 3 6 mph 1020.7mb 35f 36f
5:42am 5 7 mph 1020.8mb 35f 36f
5:36am 7 9 mph 1020.9mb 35f 36f
5:30am 7 9 mph 1020.9mb 35f 36f
5:24am 8 13 mph 1020.8mb 35f 36f
5:18am 7 10 mph 1020.8mb 35f 36f
5:12am 7 9 mph 1020.7mb 35f 36f
5:06am 6 9 mph 1020.5mb 35f 36f
5:00am 5 8 mph 1020.6mb 35f 36f
4:54am 5 6 mph 1020.5mb 35f 36f
4:48am 5 6 mph 1020.2mb 35f 36f
4:42am 3 6 mph 1019.9mb 36f 36f
4:36am 3 6 mph 1019.8mb 36f 36f
4:30am 5 6 mph 1020.1mb 36f 36f
4:24am 3 6 mph 1020.1mb 36f 36f
4:18am 6 7 mph 1020.1mb 36f 36f
4:12am 3 6 mph 1020.2mb 36f 36f
4:06am 5 6 mph 1020.1mb 36f 36f
4:00am 5 6 mph 1020mb 36f 36f
3:54am 5 6 mph 1020.5mb 36f 36f
3:48am 6 8 mph 1020.7mb 36f 36f
3:42am 6 9 mph 1020.8mb 36f 36f
3:36am 6 8 mph 1020.9mb 36f 36f
3:30am 7 9 mph 1020.9mb 36f 36f
3:24am 7 9 mph 1020.9mb 36f 36f
3:18am 8 10 mph 1020.8mb 36f 36f
3:12am 7 9 mph 1020.8mb 36f 35f
3:06am 7 9 mph 1020.9mb 36f 35f
3:00am 7 10 mph 1021mb 36f 35f
2:54am 7 13 mph 1021mb 36f 35f
2:48am 7 10 mph 1021.1mb 36f 35f
2:42am 6 9 mph 1021mb 36f 35f
2:36am 6 8 mph 1021.4mb 36f 35f
2:30am 7 10 mph 1021.7mb 36f 35f
2:24am 6 8 mph 1021.8mb 36f 35f
2:18am 6 8 mph 1021.5mb 36f 35f
2:12am 7 11 mph 1021.9mb 36f 35f
2:06am 6 8 mph 1022.1mb 36f 35f
2:00am 6 8 mph 1022.4mb 36f 35f
1:54am 5 7 mph 1022.6mb 36f 35f
1:48am 6 7 mph 1022.6mb 36f 35f
1:42am 5 6 mph 1022.8mb 36f 35f
1:36am 6 7 mph 1023mb 36f 35f
1:30am 6 8 mph 1023.1mb 36f 35f
1:24am 3 6 mph 1023.2mb 36f 35f
1:18am 5 6 mph 1023.2mb 36f 35f
1:12am 3 5 mph - 36f 35f
1:00am 3 5 mph 1023.8mb 36f 35f
12:54am 5 7 mph 1023.8mb 36f 35f
12:42am 3 5 mph 1024mb 36f 34f
12:36am 3 5 mph 1024mb 36f 34f
12:30am 6 7 mph 1024.1mb 36f 34f
12:24am 5 6 mph 1024.2mb 36f 34f
12:18am 3 6 mph 1024.3mb 36f 34f
12:06am 2 5 mph 1024.5mb 36f 34f
12:00am 5 7 mph 1024.7mb 36f 34f
Sun 03/01 11:54pm 5 6 mph 1024.9mb 36f 34f
11:42pm 7 9 mph 1025.3mb 36f 34f
11:36pm 6 8 mph 1025.3mb 36f 34f
11:30pm 6 8 mph 1025.2mb 36f 33f
11:24pm 6 8 mph 1025mb 36f 34f
11:18pm 5 6 mph 1025mb 36f 34f
11:06pm 5 7 mph 1024.8mb 36f 33f
11:00pm 5 8 mph 1024.6mb 36f 33f
10:54pm 7 11 mph 1023.9mb 36f 33f
10:48pm 7 10 mph 1023.9mb 36f 33f
10:42pm 6 9 mph 1024.2mb 36f 33f
10:36pm 3 5 mph 1024.6mb 36f 33f
10:24pm 6 7 mph 1024.5mb 36f 33f
10:18pm 5 7 mph 1024.8mb 36f 33f
10:06pm 5
mph
1025.4mb 36f 33f
10:00pm 6 7 mph 1025.6mb 36f 33f
9:54pm 5 6 mph 1025.6mb 36f 33f
9:48pm 6 8 mph 1025.3mb 36f 33f
9:36pm 5 6 mph 1025.7mb 36f 33f
9:30pm 2 3 mph 1026mb 36f 33f
9:24pm 2
mph
1026.3mb 35f 33f
9:18pm 2
mph
1026.4mb 36f 33f
9:12pm 2 3 mph 1026.7mb 36f 33f
9:06pm 2 3 mph 1026.9mb 35f 33f
9:00pm 2 3 mph 1026.8mb 36f 33f
8:54pm 2
mph
1026.6mb 35f 33f
8:48pm 1 2 mph 1026.6mb 36f 33f
8:42pm 1 2 mph 1026.7mb 36f 33f
8:36pm 2 3 mph 1026.5mb 35f 33f
8:30pm 2 3 mph 1026.6mb 35f 33f
8:24pm 3 5 mph 1026.8mb 35f 33f
8:18pm 2 3 mph 1027mb 35f 33f
8:12pm  -  2 mph 1027mb 35f 33f
8:06pm 2
mph
1027.3mb 35f 33f
8:00pm 2 3 mph 1027.1mb 35f 33f
7:54pm 1 2 mph 1027.4mb 35f 33f
7:48pm 2 3 mph 1027.7mb 35f 33f
7:42pm 2 3 mph 1028mb 35f 33f
7:36pm 3 5 mph 1028mb 35f 33f
7:30pm 2 3 mph 1028mb 35f 33f
7:24pm 3 5 mph 1027.9mb 35f 33f
7:18pm 2 3 mph 1027.8mb 35f 33f
7:12pm 3 5 mph 1028.1mb 35f 33f
7:06pm 3 5 mph 1028.2mb 35f 33f
7:00pm 3 7 mph 1028.1mb 35f 32f
6:54pm 1 3 mph 1028.1mb 35f 32f
6:48pm 2 3 mph 1028.4mb 35f 32f
6:42pm 2 3 mph 1028.2mb 35f 32f
6:36pm 3 5 mph 1028.3mb 35f 32f
6:30pm 3 7 mph 1028.7mb 35f 32f
6:24pm 6 10 mph 1029.1mb 35f 32f
6:18pm 5 8 mph 1029mb 35f 32f
6:06pm 7 9 mph 1028.6mb 35f 32f
6:00pm 8 11 mph 1028.3mb 35f 32f
5:54pm 7 10 mph 1028.3mb 35f 32f
5:48pm 9 14 mph 1028.5mb 35f 32f
5:42pm 8 14 mph 1028.3mb 35f 32f
5:36pm 9 13 mph 1028.2mb 35f 32f
5:30pm 5 8 mph 1028.2mb 35f 32f
5:24pm 7 9 mph 1027.8mb 35f 32f
5:18pm 3 7 mph 1027.8mb 35f 32f
5:06pm 3 6 mph 1028.3mb 35f 33f
5:00pm 5 7 mph 1028.4mb 35f 33f
4:54pm 2 5 mph 1028.5mb 35f 33f
4:48pm 3 5 mph 1028.3mb 35f 33f
4:36pm 5 9 mph 1028.6mb 36f 33f
4:30pm 5 7 mph 1028.7mb 36f 33f
4:24pm 5 8 mph 1028.8mb 36f 33f
4:18pm 3 6 mph 1029mb 36f 33f
4:12pm 5 8 mph 1029.3mb 35f 33f
4:06pm 5 8 mph 1029.3mb 35f 33f
4:00pm 6 9 mph 1029.4mb 35f 33f
3:54pm 8 14 mph 1029.6mb 35f 33f
3:48pm 5 8 mph 1029.7mb 35f 34f
3:36pm 6 9 mph 1029.8mb 36f 34f
3:30pm 8 9 mph 1029.8mb 36f 34f
3:24pm 3 7 mph 1029.9mb 36f 34f
3:18pm 5 6 mph 1030mb 36f 34f
3:12pm 5 8 mph - - -
3:06pm 5 7 mph 1030.1mb 36f 34f
3:00pm 5 7 mph 1030mb 36f 34f
2:54pm 6 8 mph 1030.1mb 36f 34f
2:48pm 3 7 mph 1030.2mb 36f 34f
2:42pm 6 8 mph 1030.5mb 36f 34f
2:36pm 6 8 mph 1030.9mb 36f 34f
2:30pm 5 7 mph 1031mb 36f 34f
2:24pm 8 10 mph 1031.1mb 36f 34f
2:18pm 5 7 mph 1031mb 36f 34f
2:12pm 5 7 mph 1031mb 36f 34f
2:06pm 3 7 mph 1031.2mb 36f 35f
2:00pm 5 8 mph 1031.4mb 36f 35f
1:54pm 7 9 mph 1031.4mb 36f 36f
1:48pm 7 8 mph 1031.4mb 36f 36f
1:42pm 6 8 mph 1031.2mb 36f 36f
1:36pm 6 8 mph 1031.5mb 36f 36f
1:30pm 5 8 mph 1031.4mb 36f 36f
1:24pm 5 7 mph 1031.5mb 36f 36f
1:18pm 2 5 mph 1031.6mb 35f 36f
1:12pm 3 6 mph 1031.5mb 36f 36f
1:06pm 3 7 mph 1031.7mb 35f 36f
1:00pm 3 6 mph 1032mb 36f 36f
12:54pm 2 5 mph 1032.2mb 35f 35f
12:48pm 3 6 mph 1032.4mb 36f 35f
12:42pm 5 7 mph 1032.6mb 36f 35f
12:36pm 2 5 mph 1032.9mb 36f 35f
12:30pm 2 6 mph 1033.2mb 36f 35f
12:24pm 3 6 mph 1033.3mb 36f 35f
12:18pm 3 7 mph 1033.4mb 36f 35f
12:12pm 5 7 mph 1033.8mb 36f 35f
12:06pm 3 5 mph 1034mb 36f 35f
12:00pm 5 6 mph 1034.2mb 36f 35f
11:54am 5 6 mph 1034.4mb 36f 35f
11:48am 5 8 mph 1034.5mb 36f 35f
11:42am 3 7 mph 1034.4mb 36f 35f
11:36am 5 8 mph 1034.5mb 36f 35f
11:30am 6 8 mph 1034.6mb 36f 35f
11:24am 7 9 mph 1034.9mb 36f 35f
11:18am 6 8 mph 1035.1mb 36f 35f
11:12am 3 7 mph 1035.1mb 36f 35f
11:06am 5 7 mph 1035.1mb 36f 34f
11:00am 6 9 mph 1035.1mb 36f 34f
10:54am 5 7 mph 1035.3mb 36f 34f
10:48am 5 8 mph 1035.3mb 36f 34f
10:42am 6 8 mph 1035.5mb 36f 34f
10:36am 5 6 mph 1035.7mb 35f 33f
10:30am 5 7 mph 1035.9mb 36f 33f
10:24am 3 6 mph 1036.1mb 36f 33f
10:18am 2 6 mph 1036.1mb 36f 33f
10:12am 6 8 mph 1036.3mb 36f 33f
10:06am 3 6 mph 1036.3mb 36f 33f
10:00am 6 11 mph 1035.9mb 36f 33f
9:54am 6 8 mph 1035.9mb 35f 33f
9:48am 5 7 mph 1035.9mb 36f 33f
9:42am 5 7 mph 1036.2mb 36f 33f
9:36am 5 7 mph 1036mb 35f 33f
9:30am 6 8 mph 1036mb 36f 33f
9:24am 5 7 mph 1036.2mb 36f 33f
9:18am 6 8 mph 1036.2mb - -
9:12am 6 9 mph 1036.4mb 35f 33f
9:06am 7 9 mph 1036.6mb 35f 33f
9:00am 7 9 mph 1036.5mb 35f 33f
8:54am 7 9 mph 1036.7mb 35f 33f
8:48am 7 10 mph 1036.7mb 35f 33f
8:42am 7 10 mph 1036.7mb 35f 33f
8:36am 6 9 mph 1036.4mb 35f 33f
8:30am 6 8 mph 1036.4mb 35f 32f
8:24am 3 7 mph 1036.3mb 35f 32f
8:18am 3 7 mph 1036.3mb 35f 32f
8:12am 5 8 mph 1036.5mb 35f 32f
8:06am 3 6 mph 1036.4mb 35f 32f
8:00am 5 7 mph 1036.4mb 35f 32f
7:48am 5 7 mph 1036.3mb 35f 31f
7:42am 5 8 mph 1036.3mb 35f 31f
7:36am 5 8 mph 1036.3mb - -
7:30am 5 7 mph 1036.3mb 35f 31f
7:24am 5 7 mph 1036.5mb 35f 31f
7:18am 5 6 mph 1036.6mb 35f 31f
7:12am 5 9 mph 1036.4mb 35f 31f
7:06am 5 9 mph 1036.5mb 35f 31f
7:00am 6 8 mph 1036.6mb 35f 31f
6:54am 5 7 mph 1037mb 35f 31f
6:48am 3 6 mph 1037.2mb 35f 31f
6:42am 6 9 mph 1037mb 35f 31f
6:36am 3 6 mph 1037mb 35f 31f
6:30am 6 7 mph 1037.1mb 35f 31f
6:24am 5 8 mph 1037.3mb 35f 31f
6:18am 2 5 mph 1037.3mb 35f 31f
6:12am 3 6 mph 1037.3mb 35f 31f
6:06am 5 7 mph 1037.3mb 35f 31f
6:00am 2 3 mph 1037.5mb 35f 31f
5:54am 3 6 mph 1037.2mb 35f 31f
5:48am 3 6 mph 1037.1mb 35f 31f
5:42am 3 6 mph 1037mb 35f 31f
5:36am 5 9 mph 1036.9mb 35f 31f
5:30am 5 7 mph 1037mb 35f 31f
5:24am 5 8 mph 1036.9mb 35f 31f
5:18am 5 7 mph 1037mb 35f 31f
5:12am 5 7 mph 1037.2mb 35f 31f
5:06am 5 7 mph 1037.3mb 35f 30f
5:00am 3 5 mph 1037.5mb 35f 30f
4:54am 3 7 mph 1037.3mb 35f 30f
4:48am 6 9 mph 1037.3mb 35f 30f
4:42am 6 8 mph 1037.5mb 35f 30f
4:36am 6 7 mph 1037.6mb 35f 30f
4:30am 3 5 mph 1037.5mb 35f 30f
4:24am 2 5 mph 1037.5mb 35f 30f
4:18am 5 8 mph 1037.4mb 35f 29f
4:12am 6 7 mph 1037.5mb 36f 29f
4:06am 3 6 mph 1037.6mb 36f 29f
4:00am 3 5 mph 1037.5mb - -
3:54am 5 6 mph 1037.6mb 35f 29f
3:48am 3 6 mph 1037.5mb 35f 29f
3:42am 5 7 mph 1037.3mb 35f 28f
3:36am 5 6 mph 1037.5mb 36f 28f
3:30am 2 5 mph 1037.6mb 36f 28f
3:24am 2 5 mph 1037.6mb 36f 28f
3:18am 5 6 mph 1037.5mb 36f 28f
3:12am 5 6 mph 1037.8mb 36f 28f
3:06am 2 5 mph 1037.8mb 36f 28f
3:00am 3 6 mph 1037.8mb 36f 28f
2:54am 3 6 mph 1038mb 36f 28f
2:48am 3 5 mph 1038mb 36f 28f
2:36am 5 6 mph 1038.1mb 36f 28f
2:30am 5 6 mph 1038.2mb 36f 28f
2:24am 2 5 mph 1038.4mb 36f 28f
2:18am 3 6 mph 1038.6mb 36f 28f
2:12am 3 5 mph 1038.8mb 36f 27f
2:00am 3 5 mph 1038.9mb 36f 27f
1:48am 5 6 mph 1039.1mb 36f 28f
1:42am 3 5 mph 1039.1mb 36f 28f
1:36am 3 7 mph 1039.2mb 36f 28f
1:24am 5 8 mph 1039.4mb 36f 28f
1:18am 5 6 mph 1039.6mb 36f 28f
1:06am 5 7 mph 1039.6mb 36f 27f
1:00am 3 6 mph 1039.6mb 36f 27f
12:54am 2 6 mph 1039.8mb 36f 27f
12:48am 2 5 mph 1039.9mb 36f 27f
12:42am 3 5 mph 1039.9mb 36f 27f
12:36am 3 7 mph 1040mb 36f 28f
12:30am 3 7 mph 1040mb 36f 28f
12:24am 3 5 mph 1040.2mb 36f 27f
12:18am 2 5 mph 1040.2mb 36f 27f
12:12am 3 6 mph 1040.2mb 36f 27f
12:06am 3 5 mph 1040.3mb 36f 27f
12:00am 2 5 mph 1040.4mb 36f 27f
Sat 02/28 11:54pm 2 5 mph 1040.4mb 36f 27f
11:48pm 2 6 mph 1040.5mb 36f 27f
11:42pm 3 6 mph 1040.7mb 36f 27f
11:36pm 2 3 mph 1041mb 36f 27f
11:30pm 3 6 mph 1040.9mb 36f 28f
11:24pm 2 3 mph 1041.1mb 36f 28f
11:18pm 3 6 mph 1041.2mb 36f 28f
11:12pm 5 7 mph 1041.3mb 36f 28f
11:06pm 3 6 mph 1041.5mb 36f 28f
11:00pm 3 5 mph 1041.6mb 36f 28f
10:54pm 2 3 mph 1041.7mb 36f 28f
10:42pm  -  3 mph 1041.8mb 36f 28f
10:36pm 5 6 mph 1041.8mb 36f 28f
10:30pm 3 6 mph 1041.9mb 36f 28f
10:24pm 2 5 mph 1041.9mb 36f 28f
10:18pm 3 5 mph 1041.7mb 36f 27f
10:12pm 2 5 mph 1041.9mb 36f 27f
10:06pm 2 3 mph 1041.9mb 36f 27f
10:00pm 2 3 mph 1041.9mb 36f 27f
9:54pm 2 3 mph 1041.9mb 36f 28f
9:48pm 2
mph
1041.9mb 36f 28f
9:42pm 1 2 mph 1042mb 36f 28f
9:36pm 1 2 mph 1041.8mb 36f 28f
9:30pm 3 5 mph 1041.9mb 36f 28f
9:24pm 2 3 mph 1041.8mb 36f 28f
9:18pm 2 5 mph 1041.7mb 36f 28f
9:06pm 2 5 mph 1041.7mb 36f 28f
9:00pm 1 3 mph 1041.6mb 36f 28f
8:48pm 1 3 mph 1041.6mb 36f 28f
8:42pm 3 6 mph 1041.7mb 36f 28f
8:36pm 3 6 mph 1041.8mb 36f 28f
8:30pm 2 3 mph 1042mb 36f 28f
8:24pm 3 6 mph 1042mb 36f 28f
8:18pm 2 3 mph 1042mb 36f 28f
8:12pm 2 5 mph 1042mb 35f 28f
8:06pm 3 6 mph 1041.9mb 35f 28f
8:00pm 2 5 mph 1041.9mb 36f 28f
7:54pm 5 6 mph 1041.8mb 36f 28f
7:48pm 2 3 mph 1041.9mb 36f 28f
7:42pm 2 3 mph 1041.9mb 36f 28f
7:36pm 2 3 mph 1041.9mb 36f 28f
7:30pm 2 5 mph 1041.9mb 35f 28f
7:24pm 2 5 mph 1041.8mb 35f 28f
7:18pm 2 5 mph 1041.8mb 35f 28f
7:12pm 3 6 mph 1041.8mb 35f 28f
7:06pm 2 5 mph 1041.8mb 35f 28f
7:00pm 5 7 mph 1041.8mb 35f 28f
6:54pm 5 8 mph 1041.9mb 36f 28f
6:48pm 5 8 mph 1041.7mb 36f 28f
6:42pm 5 8 mph 1041.8mb 36f 28f
6:00pm 3 7 mph 1041.6mb 36f 29f
5:54pm 6 8 mph 1041.7mb 36f 29f
5:48pm 5 7 mph 1041.7mb 36f 29f
5:42pm 6 9 mph 1041.6mb 36f 29f
5:36pm 3 6 mph 1041.5mb 36f 29f
5:30pm 5 9 mph 1041.5mb 36f 29f
5:24pm 3 7 mph 1041.5mb 36f 29f
5:18pm 5 8 mph 1041.6mb 36f 30f
5:06pm 5 7 mph 1041.4mb 35f 30f
5:00pm 3 7 mph 1041.5mb 35f 30f
4:48pm 6 10 mph 1041.4mb 35f 31f
4:42pm 3 8 mph 1041.3mb 35f 30f
4:36pm 5 8 mph 1041.2mb 35f 30f
4:30pm 3 7 mph 1041.2mb 36f 30f
4:18pm 5 7 mph 1041.4mb 36f 30f
4:12pm 6 9 mph 1041.5mb 36f 30f
4:06pm 5 9 mph 1041.6mb 36f 30f
4:00pm 5 9 mph 1041.6mb 36f 30f
3:54pm 6 8 mph 1041.7mb 36f 30f
3:48pm 5 9 mph 1041.6mb 36f 30f
3:42pm 6 10 mph 1041.7mb 36f 30f
3:36pm 5 9 mph 1041.7mb 36f 30f
3:30pm 7 11 mph 1041.7mb 36f 30f
3:24pm 6 9 mph 1041.6mb 36f 30f
3:18pm 6 10 mph 1041.7mb 36f 30f
3:12pm 7 13 mph 1041.8mb 36f 30f
3:06pm 6 11 mph 1041.9mb 36f 30f
3:00pm 9 14 mph 1042mb 36f 30f
2:54pm 5 9 mph 1042.1mb 36f 30f
2:48pm 5 7 mph 1042mb 36f 30f
2:42pm 5 10 mph 1042.1mb 36f 30f
2:36pm 7 11 mph 1042.1mb 36f 30f
2:30pm 6 9 mph 1042.2mb 36f 30f
2:24pm 9 11 mph 1042.3mb 36f 30f
2:18pm 7 13 mph 1042.5mb 37f 30f
2:06pm 6 11 mph 1042.2mb 37f 29f
2:00pm 7 11 mph 1042.1mb 37f 29f
1:54pm 8 13 mph 1042.2mb 36f 29f
1:48pm 7 11 mph 1042.3mb 36f 29f
1:42pm 6 10 mph 1042.5mb 37f 29f
1:36pm 6 8 mph 1042.5mb 36f 29f
1:30pm 8 15 mph 1042.6mb 36f 29f
1:24pm 6 13 mph 1042.6mb 36f 29f
1:18pm 9 13 mph 1042.5mb 36f 29f
1:12pm 7 11 mph 1042.7mb 36f 29f
1:00pm 9 14 mph 1042.9mb 36f 29f
12:54pm 11 16 mph 1042.9mb 36f 29f
12:48pm 5 10 mph 1043mb 36f 29f
12:42pm 8 14 mph 1043.1mb 36f 29f
12:36pm 6 10 mph 1043.3mb 36f 29f
12:30pm 9 13 mph 1043.4mb 36f 29f
12:18pm 10 14 mph 1043.4mb 36f 29f
12:12pm 7 13 mph 1043.5mb 36f 29f
12:06pm 7 13 mph 1043.5mb 36f 29f
12:00pm 8 14 mph 1043.5mb 36f 29f
11:48am 10 17 mph 1043.5mb 36f 29f
11:36am 9 13 mph 1043.6mb 36f 28f
11:30am 7 13 mph 1043.7mb 36f 29f
11:24am 6 10 mph 1043.8mb 36f 29f
11:18am 6 10 mph 1043.8mb 36f 28f
11:12am 7 11 mph 1043.8mb 36f 28f
11:06am 8 14 mph 1043.8mb 36f 28f
11:00am 7 11 mph 1043.8mb 36f 28f
10:54am 8 14 mph 1043.9mb 36f 28f
10:48am 8 14 mph 1043.8mb 36f 28f
10:36am 8 13 mph 1043.9mb 35f 28f
10:30am 8 14 mph 1043.9mb 35f 28f
10:24am 8 13 mph 1043.8mb 35f 28f
10:18am 10 14 mph 1043.8mb 35f 27f
10:12am 9 14 mph 1043.9mb 35f 27f
10:06am 7 15 mph 1043.7mb 35f 28f
10:00am 7 11 mph 1043.8mb 35f 27f
9:54am 9 14 mph 1043.9mb 35f 27f
9:48am 8 13 mph 1043.9mb 35f 27f
9:42am 9 14 mph 1044mb 35f 27f
9:36am 8 14 mph 1043.9mb 35f 27f
9:30am 7 10 mph 1043.9mb 35f 27f
9:24am 8 14 mph 1043.8mb 35f 27f
9:18am 7 10 mph 1044.1mb 35f 27f
9:06am 8 13 mph 1043.9mb 35f 26f
9:00am 10 15 mph 1043.7mb 35f 26f
8:54am 7 11 mph 1043.5mb 35f 26f
8:48am 8 10 mph 1043.4mb 35f 26f
8:42am 10 16 mph 1043.3mb 35f 26f
8:36am 8 15 mph 1043.1mb 35f 26f
8:30am 9 15 mph 1043.1mb 35f 26f
8:24am 8 13 mph 1043.1mb 35f 26f
8:18am 6 11 mph 1042.9mb 35f 26f
8:12am 9 15 mph 1042.8mb 35f 26f
8:06am 8 15 mph 1042.7mb 35f 26f
8:00am 7 11 mph 1042.5mb 35f 26f
7:54am 8 13 mph 1042.5mb 35f 26f
7:48am 7 11 mph 1042.4mb 35f 26f
7:42am 8 14 mph 1042.4mb 35f 26f
7:36am 9 14 mph 1042mb 35f 26f
7:30am 7 11 mph 1042mb 35f 26f
7:24am 6 10 mph 1041.9mb 35f 26f
7:18am 6 10 mph 1041.7mb 35f 26f
7:12am 6 9 mph 1041.9mb 35f 26f
7:06am 6 9 mph 1041.8mb 35f 26f
7:00am 6 10 mph 1041.8mb 35f 26f
6:54am 6 9 mph 1041.8mb 35f 26f
6:48am 5 9 mph 1041.6mb 35f 26f
6:42am 7 14 mph 1041.5mb 35f 26f
6:36am 6 10 mph 1041.5mb 35f 26f
6:30am 6 11 mph 1041.3mb 35f 26f
6:24am 6 10 mph 1041.2mb 35f 26f
6:18am 6 10 mph 1041.1mb 35f 26f
6:12am 7 14 mph 1040.9mb 35f 26f
6:06am 6 11 mph 1041mb 35f 26f
6:00am 7 11 mph 1040.8mb 35f 26f
5:54am 8 11 mph 1040.7mb 35f 26f
5:48am 9 14 mph 1040.6mb 35f 27f
5:42am 5 9 mph 1040.6mb 35f 27f
5:36am 7 11 mph 1040.5mb 35f 27f
5:30am 8 14 mph 1040.4mb 35f 27f
5:24am 6 11 mph 1040.3mb 35f 27f
5:18am 6 11 mph 1040.3mb 35f 27f
5:12am 8 13 mph 1040.2mb 35f 27f
5:06am 7 13 mph 1040mb 35f 27f
5:00am 6 9 mph 1039.9mb 35f 27f
4:54am 7 14 mph 1039.8mb 35f 27f
4:48am 6 14 mph 1039.8mb 35f 27f
4:42am 6 9 mph 1039.7mb 35f 27f
4:36am 5 6 mph 1039.6mb 35f 27f
4:30am 5 8 mph 1039.5mb 35f 27f
4:24am 5 9 mph 1039.4mb 35f 27f
4:18am 6 9 mph 1039.3mb 35f 27f
4:12am 5 8 mph 1039.1mb 35f 27f
4:06am 6 13 mph 1039mb 35f 27f
4:00am 6 10 mph 1039mb 35f 27f
3:54am 7 11 mph 1038.9mb 35f 27f
3:48am 7 11 mph 1038.7mb 35f 27f
3:42am 7 13 mph 1038.8mb 35f 28f
3:36am 7 11 mph 1038.8mb 35f 28f
3:30am 7 11 mph 1038.6mb - -
3:24am 7 11 mph 1038.5mb 35f 28f
3:18am 6 10 mph 1038.4mb 35f 28f
3:12am 8 13 mph 1038.3mb 35f 28f
3:06am 8 13 mph 1038.2mb 35f 28f
3:00am 6 10 mph 1038.2mb 35f 28f
2:54am 8 13 mph 1038.2mb 35f 28f
2:48am 6 9 mph 1038.1mb 35f 28f
2:42am 3 6 mph 1038.1mb 35f 28f
2:36am 7 11 mph 1038.1mb 35f 28f
2:30am 6 10 mph 1038.1mb 35f 28f
2:24am 6 8 mph 1038mb 35f 28f
2:18am 6 9 mph 1038.1mb 35f 29f
2:12am 6 9 mph 1038mb 35f 29f
2:06am 7 10 mph 1038mb 35f 29f
2:00am 7 11 mph 1037.9mb 35f 29f
1:54am 6 14 mph 1037.8mb 35f 29f
1:42am 6 11 mph 1037.6mb 35f 29f
1:36am 6 11 mph 1037.6mb 35f 29f
1:30am 7 10 mph 1037.5mb 35f 29f
1:24am 7 11 mph 1037.4mb 35f 29f
1:12am 6 11 mph 1037.3mb 36f 29f
1:06am 7 10 mph 1037.2mb 36f 29f
1:00am 5 9 mph 1037.2mb 35f 29f
12:54am 5 7 mph 1037.3mb 35f 29f
12:42am 6 8 mph 1037.2mb 35f 29f
12:36am 5 7 mph 1037.2mb 35f 29f
12:30am 5 8 mph 1037.1mb 35f 29f
12:24am 3 6 mph 1037mb 35f 29f
12:18am 3 6 mph 1036.9mb 35f 29f
12:12am 3 6 mph 1036.8mb 35f 29f
12:06am 5 8 mph 1036.6mb 35f 29f
12:00am 2 5 mph 1036.4mb 35f 29f
Fri 02/27 11:54pm 5 7 mph 1036.2mb 35f 29f
11:48pm 5 7 mph 1036.1mb 35f 29f
11:42pm 5 8 mph 1036.2mb 35f 29f
11:36pm 3 6 mph 1036.3mb 35f 29f
11:30pm 6 9 mph 1036.3mb 35f 29f
11:24pm 3 5 mph 1036.3mb 35f 29f
11:18pm 5 7 mph 1036.3mb 35f 29f
11:12pm 3 6 mph 1036.3mb 35f 29f
11:06pm 3 6 mph 1036.3mb 35f 29f
11:00pm 3 6 mph 1036.1mb 35f 30f
10:54pm 3 6 mph 1036mb 35f 29f
10:48pm 3 6 mph 1036mb 36f 29f
10:42pm 3 6 mph 1035.7mb 36f 30f
10:36pm 3 6 mph 1035.7mb 35f 30f
10:30pm 3 6 mph 1035.6mb 35f 30f
10:24pm 3 6 mph 1035.5mb 35f 30f
10:18pm 3 7 mph 1035.4mb 35f 30f
10:12pm 5 6 mph 1035.3mb 36f 29f
10:06pm 3 6 mph 1035.2mb 36f 30f
10:00pm 3 6 mph 1035.1mb 36f 30f
9:54pm 2 5 mph 1035mb 36f 30f
9:48pm 3 6 mph 1035mb 36f 30f
9:42pm 5 7 mph 1035mb 36f 30f
9:36pm 3 6 mph 1035.1mb 36f 30f
9:30pm 5 7 mph 1035mb 36f 30f
9:24pm 6 9 mph 1035mb 36f 30f
9:18pm 5 7 mph 1034.9mb 35f 30f